createdAt,value
2019-02-07T00:00:01.916Z,70.61
2019-02-07T00:01:27.221Z,70.76
2019-02-07T00:02:37.222Z,70.80
2019-02-07T00:03:40.111Z,71.48
2019-02-07T00:04:42.977Z,71.48
2019-02-07T00:05:46.444Z,71.08
2019-02-07T00:06:49.602Z,70.74
2019-02-07T00:07:53.540Z,70.74
2019-02-07T00:08:56.518Z,70.57
2019-02-07T00:09:59.440Z,71.12
2019-02-07T00:11:02.475Z,70.86
2019-02-07T00:12:05.313Z,71.48
2019-02-07T00:13:08.442Z,71.02
2019-02-07T00:14:11.298Z,70.37
2019-02-07T00:15:16.706Z,70.88
2019-02-07T00:16:19.581Z,70.57
2019-02-07T00:17:22.413Z,70.57
2019-02-07T00:18:25.554Z,71.23
2019-02-07T00:19:32.326Z,70.80
2019-02-07T00:20:35.247Z,70.80
2019-02-07T00:21:38.154Z,71.26
2019-02-07T00:22:40.993Z,70.55
2019-02-07T00:23:46.272Z,71.05
2019-02-07T00:24:49.096Z,70.08
2019-02-07T00:25:56.786Z,69.89
2019-02-07T00:27:00.074Z,69.72
2019-02-07T00:28:05.872Z,69.99
2019-02-07T00:29:08.704Z,69.99
2019-02-07T00:30:11.582Z,70.38
2019-02-07T00:31:14.521Z,69.61
2019-02-07T00:32:17.640Z,69.61
2019-02-07T00:33:20.763Z,69.37
2019-02-07T00:34:23.634Z,69.68
2019-02-07T00:35:26.503Z,70.25
2019-02-07T00:36:29.711Z,70.81
2019-02-07T00:37:35.876Z,70.70
2019-02-07T00:38:41.918Z,70.31
2019-02-07T00:39:44.804Z,70.07
2019-02-07T00:40:47.673Z,70.79
2019-02-07T00:41:52.570Z,70.52
2019-02-07T00:42:55.581Z,70.13
2019-02-07T00:44:00.408Z,70.13
2019-02-07T00:45:03.237Z,70.74
2019-02-07T00:46:06.072Z,70.44
2019-02-07T00:47:08.983Z,70.44
2019-02-07T00:48:12.311Z,70.43
2019-02-07T00:49:15.156Z,70.19
2019-02-07T00:50:18.310Z,69.62
2019-02-07T00:51:21.146Z,70.13
2019-02-07T00:52:24.425Z,70.42
2019-02-07T00:53:27.383Z,70.45
2019-02-07T00:54:30.181Z,69.88
2019-02-07T00:55:33.008Z,70.14
2019-02-07T00:56:36.187Z,70.06
2019-02-07T00:57:38.993Z,69.50
2019-02-07T00:58:41.897Z,70.15
2019-02-07T00:59:44.720Z,70.15
2019-02-07T01:00:47.764Z,69.78
2019-02-07T01:01:51.686Z,70.19
2019-02-07T01:02:54.835Z,70.16
2019-02-07T01:03:57.792Z,69.58
2019-02-07T01:05:01.141Z,69.96
2019-02-07T01:06:03.962Z,69.67
2019-02-07T01:07:08.811Z,69.79
2019-02-07T01:08:11.413Z,69.79
2019-02-07T01:09:14.798Z,70.01
2019-02-07T01:10:17.652Z,69.96
2019-02-07T01:11:20.481Z,69.76
2019-02-07T01:12:23.769Z,69.76
2019-02-07T01:13:26.903Z,70.40
2019-02-07T01:14:29.822Z,70.26
2019-02-07T01:15:33.440Z,70.26
2019-02-07T01:16:36.291Z,69.78
2019-02-07T01:17:39.146Z,70.49
2019-02-07T01:18:42.211Z,70.49
2019-02-07T01:19:45.019Z,70.81
2019-02-07T01:20:47.922Z,71.24
2019-02-07T01:21:51.062Z,71.39
2019-02-07T01:22:56.713Z,71.24
2019-02-07T01:23:59.657Z,71.32
2019-02-07T01:25:02.527Z,71.32
2019-02-07T01:26:05.833Z,71.82
2019-02-07T01:27:08.738Z,71.97
2019-02-07T01:28:14.559Z,71.98
2019-02-07T01:29:17.471Z,72.06
2019-02-07T01:30:20.346Z,72.18
2019-02-07T01:31:23.186Z,71.99
2019-02-07T01:32:25.994Z,71.88
2019-02-07T01:33:28.823Z,72.35
2019-02-07T01:34:33.259Z,71.69
2019-02-07T01:35:36.126Z,71.65
2019-02-07T01:36:38.990Z,72.15
2019-02-07T01:37:41.857Z,72.52
2019-02-07T01:38:45.083Z,72.45
2019-02-07T01:39:47.953Z,72.45
2019-02-07T01:40:51.199Z,72.14
2019-02-07T01:41:54.055Z,72.35
2019-02-07T01:42:56.904Z,72.10
2019-02-07T01:43:59.768Z,72.10
2019-02-07T01:45:12.564Z,72.01
2019-02-07T01:46:07.214Z,71.69
2019-02-07T01:47:10.452Z,72.34
2019-02-07T01:48:13.304Z,71.64
2019-02-07T01:49:18.378Z,72.05
2019-02-07T01:50:21.827Z,72.28
2019-02-07T01:51:24.938Z,71.92
2019-02-07T01:52:27.771Z,71.89
2019-02-07T01:53:31.237Z,71.77
2019-02-07T01:54:34.071Z,72.12
2019-02-07T01:55:37.035Z,72.12
2019-02-07T01:56:39.860Z,71.96
2019-02-07T01:57:42.777Z,71.84
2019-02-07T01:58:45.696Z,72.15
2019-02-07T01:59:48.820Z,72.32
2019-02-07T02:00:51.635Z,72.04
2019-02-07T02:01:54.582Z,72.48
2019-02-07T02:02:57.601Z,72.48
2019-02-07T02:04:00.870Z,71.94
2019-02-07T02:05:03.686Z,71.94
2019-02-07T02:06:06.963Z,72.17
2019-02-07T02:07:09.836Z,71.63
2019-02-07T02:08:12.666Z,71.55
2019-02-07T02:09:15.507Z,71.44
2019-02-07T02:10:18.394Z,71.36
2019-02-07T02:11:21.290Z,71.71
2019-02-07T02:12:26.189Z,72.11
2019-02-07T02:13:29.078Z,72.18
2019-02-07T02:14:31.899Z,72.36
2019-02-07T02:15:36.631Z,72.21
2019-02-07T02:16:39.789Z,72.38
2019-02-07T02:17:42.616Z,72.79
2019-02-07T02:18:45.754Z,72.58
2019-02-07T02:19:49.110Z,72.57
2019-02-07T02:20:55.415Z,72.57
2019-02-07T02:21:58.276Z,73.08
2019-02-07T02:23:01.189Z,73.26
2019-02-07T02:24:04.019Z,73.03
2019-02-07T02:25:07.156Z,73.40
2019-02-07T02:26:10.010Z,73.46
2019-02-07T02:27:12.857Z,72.92
2019-02-07T02:28:15.746Z,72.92
2019-02-07T02:29:18.987Z,73.23
2019-02-07T02:30:21.845Z,72.65
2019-02-07T02:31:25.069Z,72.74
2019-02-07T02:32:27.946Z,72.75
2019-02-07T02:33:30.825Z,73.29
2019-02-07T02:34:33.675Z,73.16
2019-02-07T02:35:36.514Z,72.59
2019-02-07T02:36:39.367Z,72.55
2019-02-07T02:37:42.526Z,72.90
2019-02-07T02:38:45.416Z,72.36
2019-02-07T02:39:48.667Z,72.39
2019-02-07T02:40:51.808Z,72.51
2019-02-07T02:41:54.632Z,72.74
2019-02-07T02:42:57.449Z,72.54
2019-02-07T02:44:00.824Z,72.17
2019-02-07T02:45:03.659Z,72.30
2019-02-07T02:46:06.485Z,72.28
2019-02-07T02:47:09.311Z,72.28
2019-02-07T02:48:12.237Z,71.81
2019-02-07T02:49:15.188Z,71.81
2019-02-07T02:50:18.695Z,72.08
2019-02-07T02:51:21.502Z,71.66
2019-02-07T02:52:24.352Z,72.04
2019-02-07T02:53:27.527Z,72.47
2019-02-07T02:54:42.664Z,72.40
2019-02-07T02:55:46.367Z,72.65
2019-02-07T02:56:49.591Z,72.75
2019-02-07T02:57:53.713Z,72.95
2019-02-07T02:58:56.538Z,73.02
2019-02-07T03:00:02.546Z,73.02
2019-02-07T03:01:27.165Z,73.51
2019-02-07T03:02:41.712Z,73.51
2019-02-07T03:04:15.704Z,73.26
2019-02-07T03:05:43.378Z,72.94
2019-02-07T03:07:03.575Z,72.94
2019-02-07T03:08:25.558Z,73.28
2019-02-07T03:09:40.980Z,72.65
2019-02-07T03:10:53.313Z,73.08
2019-02-07T03:12:12.376Z,72.93
2019-02-07T03:13:36.917Z,73.31
2019-02-07T03:14:57.552Z,72.93
2019-02-07T03:16:19.599Z,72.93
2019-02-07T03:17:56.363Z,73.49
2019-02-07T03:19:12.748Z,73.80
2019-02-07T03:20:33.171Z,73.67
2019-02-07T03:21:47.940Z,73.37
2019-02-07T03:23:08.393Z,73.42
2019-02-07T03:24:28.304Z,72.91
2019-02-07T03:26:11.604Z,72.83
2019-02-07T03:27:33.403Z,73.30
2019-02-07T03:29:00.538Z,73.02
2019-02-07T03:30:20.530Z,72.77
2019-02-07T03:31:40.983Z,73.33
2019-02-07T03:33:01.043Z,72.61
2019-02-07T03:34:25.120Z,72.93
2019-02-07T03:35:46.657Z,73.19
2019-02-07T03:37:14.247Z,72.97
2019-02-07T03:38:30.860Z,73.36
2019-02-07T03:40:01.397Z,72.72
2019-02-07T03:41:21.664Z,72.72
2019-02-07T03:43:01.555Z,72.87
2019-02-07T03:44:14.487Z,72.51
2019-02-07T03:45:38.827Z,72.58
2019-02-07T03:46:55.275Z,72.82
2019-02-07T03:48:17.219Z,73.02
2019-02-07T03:49:50.663Z,72.70
2019-02-07T03:51:15.200Z,72.70
2019-02-07T03:52:35.204Z,72.69
2019-02-07T03:53:57.275Z,73.06
2019-02-07T03:55:24.135Z,72.88
2019-02-07T03:56:44.146Z,72.43
2019-02-07T03:58:12.223Z,72.98
2019-02-07T03:59:34.145Z,72.84
2019-02-07T04:00:59.075Z,72.63
2019-02-07T04:02:26.405Z,72.75
2019-02-07T04:03:36.896Z,72.91
2019-02-07T04:04:54.270Z,72.82
2019-02-07T04:06:24.997Z,73.31
2019-02-07T04:07:56.501Z,73.31
2019-02-07T04:09:16.526Z,73.28
2019-02-07T04:10:30.427Z,73.57
2019-02-07T04:11:50.643Z,73.61
2019-02-07T04:13:27.578Z,72.69
2019-02-07T04:14:57.989Z,74.33
2019-02-07T04:16:18.199Z,74.15
2019-02-07T04:17:31.606Z,73.76
2019-02-07T04:19:02.334Z,73.76
2019-02-07T04:20:26.785Z,74.39
2019-02-07T04:21:47.192Z,74.33
2019-02-07T04:23:04.962Z,74.33
2019-02-07T04:24:32.712Z,75.18
2019-02-07T04:25:49.385Z,75.30
2019-02-07T04:27:09.780Z,76.03
2019-02-07T04:28:43.607Z,76.31
2019-02-07T04:29:54.085Z,75.64
2019-02-07T04:31:20.857Z,75.64
2019-02-07T04:32:41.304Z,76.12
2019-02-07T04:34:02.859Z,75.95
2019-02-07T04:35:33.371Z,76.04
2019-02-07T04:36:45.616Z,76.04
2019-02-07T04:38:06.739Z,76.45
2019-02-07T04:39:28.310Z,75.37
2019-02-07T04:40:40.650Z,75.34
2019-02-07T04:42:08.169Z,75.82
2019-02-07T04:43:44.433Z,75.37
2019-02-07T04:45:18.938Z,76.08
2019-02-07T04:46:40.491Z,76.08
2019-02-07T04:48:05.194Z,76.27
2019-02-07T04:49:30.294Z,75.98
2019-02-07T04:50:52.681Z,75.66
2019-02-07T04:52:26.129Z,75.85
2019-02-07T04:53:46.630Z,75.60
2019-02-07T04:55:08.188Z,76.09
2019-02-07T04:56:28.767Z,76.68
2019-02-07T04:57:41.382Z,77.00
2019-02-07T04:59:11.752Z,77.30
2019-02-07T05:00:31.754Z,77.24
2019-02-07T05:01:56.366Z,77.70
2019-02-07T05:03:20.458Z,77.04
2019-02-07T05:04:45.125Z,76.60
2019-02-07T05:06:09.724Z,76.47
2019-02-07T05:07:30.055Z,76.78
2019-02-07T05:08:38.746Z,77.21
2019-02-07T05:10:00.488Z,76.93
2019-02-07T05:11:22.061Z,77.12
2019-02-07T05:12:46.415Z,77.09
2019-02-07T05:14:14.411Z,78.00
2019-02-07T05:15:45.114Z,77.51
2019-02-07T05:17:18.865Z,77.51
2019-02-07T05:18:32.444Z,77.68
2019-02-07T05:19:57.414Z,78.42
2019-02-07T05:21:17.612Z,79.01
2019-02-07T05:22:42.176Z,79.01
2019-02-07T05:23:58.821Z,79.99
2019-02-07T05:25:23.963Z,80.56
2019-02-07T05:26:38.947Z,80.01
2019-02-07T05:28:00.542Z,80.01
2019-02-07T05:29:37.299Z,80.74
2019-02-07T05:30:58.998Z,80.74
2019-02-07T05:32:27.081Z,81.36
2019-02-07T05:34:00.714Z,80.96
2019-02-07T05:35:33.800Z,81.32
2019-02-07T05:36:55.677Z,80.88
2019-02-07T05:38:17.304Z,80.88
2019-02-07T05:39:44.732Z,81.62
2019-02-07T05:41:12.376Z,81.63
2019-02-07T05:42:34.660Z,81.73
2019-02-07T05:44:08.198Z,80.78
2019-02-07T05:45:28.919Z,80.26
2019-02-07T05:47:08.698Z,79.69
2019-02-07T05:48:31.810Z,79.65
2019-02-07T05:50:05.161Z,80.78
2019-02-07T05:51:32.503Z,80.78
2019-02-07T05:52:52.789Z,78.90
2019-02-07T05:54:18.571Z,79.69
2019-02-07T05:55:34.616Z,79.69
2019-02-07T05:57:01.948Z,79.21
2019-02-07T05:58:28.353Z,79.61
2019-02-07T05:59:49.031Z,78.92
2019-02-07T06:01:02.427Z,78.19
2019-02-07T06:02:33.273Z,78.79
2019-02-07T06:03:49.278Z,78.79
2019-02-07T06:05:04.730Z,79.14
2019-02-07T06:06:21.635Z,79.89
2019-02-07T06:07:51.145Z,80.10
2019-02-07T06:09:21.783Z,80.69
2019-02-07T06:10:52.456Z,81.44
2019-02-07T06:12:19.064Z,81.44
2019-02-07T06:13:52.655Z,80.29
2019-02-07T06:15:13.054Z,81.00
2019-02-07T06:16:33.247Z,81.00
2019-02-07T06:17:58.214Z,80.88
2019-02-07T06:19:25.932Z,81.29
2019-02-07T06:20:59.254Z,81.17
2019-02-07T06:22:21.250Z,81.24
2019-02-07T06:23:41.585Z,81.41
2019-02-07T06:25:12.686Z,81.67
2019-02-07T06:26:39.995Z,81.67
2019-02-07T06:28:13.498Z,81.67
2019-02-07T06:29:36.784Z,82.11
2019-02-07T06:44:33.378Z,82.68
2019-02-07T06:45:46.208Z,82.74
2019-02-07T06:47:16.566Z,82.82
2019-02-07T06:48:43.983Z,82.82
2019-02-07T06:50:01.151Z,83.21
2019-02-07T06:51:26.252Z,83.21
2019-02-07T06:52:46.230Z,83.17
2019-02-07T06:54:23.414Z,82.74
2019-02-07T06:55:45.004Z,83.24
2019-02-07T06:57:22.056Z,83.22
2019-02-07T06:58:55.075Z,83.08
2019-02-07T07:00:18.539Z,83.31
2019-02-07T07:01:38.267Z,83.86
2019-02-07T07:03:02.627Z,83.86
2019-02-07T07:04:24.202Z,83.84
2019-02-07T07:05:47.170Z,84.02
2019-02-07T07:07:08.809Z,84.19
2019-02-07T07:08:28.778Z,84.19
2019-02-07T07:09:56.120Z,84.39
2019-02-07T07:11:24.128Z,84.39
2019-02-07T07:12:48.984Z,84.74
2019-02-07T07:14:13.485Z,84.25
2019-02-07T07:15:28.967Z,84.25
2019-02-07T07:16:49.360Z,84.64
2019-02-07T07:18:09.347Z,84.96
2019-02-07T07:19:36.798Z,85.10
2019-02-07T07:20:59.556Z,85.07
2019-02-07T07:22:20.165Z,85.07
2019-02-07T07:23:40.499Z,85.27
2019-02-07T07:25:14.398Z,85.02
2019-02-07T07:26:42.638Z,85.36
2019-02-07T07:28:20.102Z,85.36
2019-02-07T07:29:48.191Z,85.36
2019-02-07T07:31:08.624Z,85.81
2019-02-07T07:32:42.073Z,86.17
2019-02-07T07:33:58.115Z,86.50
2019-02-07T07:35:18.115Z,86.65
2019-02-07T07:36:47.820Z,87.81
2019-02-07T07:38:21.311Z,87.40
2019-02-07T07:39:41.940Z,87.70
2019-02-07T07:40:55.390Z,87.72
2019-02-07T07:42:26.043Z,88.32
2019-02-07T07:43:41.608Z,89.00
2019-02-07T07:45:09.417Z,89.36
2019-02-07T07:46:29.417Z,89.25
2019-02-07T07:47:56.900Z,89.25
2019-02-07T07:49:17.025Z,89.98
2019-02-07T07:50:45.047Z,90.68
2019-02-07T07:52:25.220Z,90.66
2019-02-07T07:53:58.940Z,90.62
2019-02-07T07:55:22.595Z,91.09
2019-02-07T07:56:53.641Z,91.36
2019-02-07T07:58:21.258Z,91.36
2019-02-07T07:59:55.724Z,91.87
2019-02-07T08:01:17.428Z,91.87
2019-02-07T08:02:57.495Z,91.93
2019-02-07T08:04:12.537Z,92.27
2019-02-07T08:05:26.188Z,92.82
2019-02-07T08:07:05.536Z,92.82
2019-02-07T08:08:32.206Z,91.95
2019-02-07T08:09:49.547Z,92.78
2019-02-07T08:11:20.035Z,92.80
2019-02-07T08:12:40.195Z,92.29
2019-02-07T08:14:00.311Z,92.45
2019-02-07T08:15:20.812Z,93.26
2019-02-07T08:16:42.428Z,93.20
2019-02-07T08:18:19.575Z,93.82
2019-02-07T08:19:41.623Z,93.82
2019-02-07T08:21:18.110Z,93.85
2019-02-07T08:22:38.338Z,93.95
2019-02-07T08:23:56.251Z,94.04
2019-02-07T08:25:16.629Z,94.10
2019-02-07T08:26:41.091Z,94.13
2019-02-07T08:28:00.851Z,94.15
2019-02-07T08:29:31.618Z,94.50
2019-02-07T08:30:51.562Z,94.78
2019-02-07T08:32:24.752Z,94.53
2019-02-07T08:33:47.235Z,94.92
2019-02-07T08:35:17.845Z,94.34
2019-02-07T08:36:37.749Z,94.34
2019-02-07T08:38:01.389Z,94.71
2019-02-07T08:39:21.772Z,94.90
2019-02-07T08:40:52.594Z,95.48
2019-02-07T08:42:32.178Z,95.47
2019-02-07T08:44:14.281Z,95.45
2019-02-07T08:45:38.195Z,95.38
2019-02-07T08:46:59.769Z,95.31
2019-02-07T08:48:30.620Z,95.32
2019-02-07T08:49:58.120Z,95.32
2019-02-07T08:51:12.928Z,95.40
2019-02-07T08:52:52.427Z,95.75
2019-02-07T08:54:16.744Z,95.51
2019-02-07T08:55:39.200Z,95.69
2019-02-07T08:57:05.700Z,95.27
2019-02-07T08:58:25.903Z,95.27
2019-02-07T08:59:59.681Z,95.31
2019-02-07T09:01:32.952Z,96.17
2019-02-07T09:02:53.360Z,96.17
2019-02-07T09:04:19.388Z,95.63
2019-02-07T09:05:46.724Z,96.18
2019-02-07T09:07:17.759Z,96.37
2019-02-07T09:08:44.951Z,96.06
2019-02-07T09:10:02.407Z,96.35
2019-02-07T09:11:29.792Z,96.35
2019-02-07T09:13:06.701Z,96.08
2019-02-07T09:14:31.746Z,96.08
2019-02-07T09:15:55.775Z,96.40
2019-02-07T09:17:37.561Z,96.93
2019-02-07T09:19:11.711Z,97.04
2019-02-07T09:20:36.246Z,97.15
2019-02-07T09:22:06.766Z,97.07
2019-02-07T09:23:37.197Z,97.39
2019-02-07T09:25:10.959Z,97.20
2019-02-07T09:26:35.221Z,97.20
2019-02-07T09:27:56.064Z,96.95
2019-02-07T09:29:15.997Z,96.75
2019-02-07T09:30:36.346Z,96.91
2019-02-07T09:32:03.943Z,96.64
2019-02-07T09:33:22.090Z,96.64
2019-02-07T09:34:43.647Z,96.96
2019-02-07T09:36:05.781Z,97.07
2019-02-07T09:37:30.388Z,97.07
2019-02-07T09:38:55.215Z,96.91
2019-02-07T09:40:16.094Z,97.09
2019-02-07T09:41:30.778Z,97.09
2019-02-07T09:42:55.251Z,97.23
2019-02-07T09:44:15.256Z,97.22
2019-02-07T09:45:35.825Z,97.65
2019-02-07T09:47:03.900Z,97.26
2019-02-07T09:48:30.041Z,97.56
2019-02-07T09:50:00.470Z,97.56
2019-02-07T09:51:37.396Z,97.61
2019-02-07T09:52:58.165Z,97.43
2019-02-07T09:54:18.446Z,97.14
2019-02-07T09:55:49.329Z,97.67
2019-02-07T09:57:17.431Z,97.67
2019-02-07T09:58:42.200Z,97.71
2019-02-07T10:00:06.845Z,97.71
2019-02-07T10:01:26.851Z,97.73
2019-02-07T10:02:41.792Z,97.55
2019-02-07T10:04:01.828Z,97.62
2019-02-07T10:05:25.022Z,97.62
2019-02-07T10:06:46.642Z,97.76
2019-02-07T10:08:11.324Z,98.01
2019-02-07T10:09:37.226Z,97.49
2019-02-07T10:10:57.761Z,98.00
2019-02-07T10:12:18.037Z,98.00
2019-02-07T10:13:37.990Z,97.92
2019-02-07T10:14:59.918Z,97.75
2019-02-07T10:16:27.668Z,97.45
2019-02-07T10:17:48.801Z,97.54
2019-02-07T10:19:19.215Z,97.23
2019-02-07T10:20:40.663Z,97.48
2019-02-07T10:22:09.929Z,97.63
2019-02-07T10:23:21.168Z,97.79
2019-02-07T10:24:41.374Z,97.83
2019-02-07T10:26:01.801Z,98.13
2019-02-07T10:27:22.042Z,98.13
2019-02-07T10:28:42.196Z,98.17
2019-02-07T10:29:57.184Z,98.03
2019-02-07T10:31:37.149Z,97.72
2019-02-07T10:32:57.086Z,98.04
2019-02-07T10:34:27.858Z,98.04
2019-02-07T10:35:58.289Z,98.29
2019-02-07T10:37:19.943Z,97.83
2019-02-07T10:38:47.304Z,97.69
2019-02-07T10:40:01.785Z,97.76
2019-02-07T10:41:14.909Z,97.76
2019-02-07T10:42:38.493Z,98.35
2019-02-07T10:44:12.179Z,97.72
2019-02-07T10:45:32.152Z,98.52
2019-02-07T10:46:53.804Z,98.13
2019-02-07T10:48:18.058Z,98.51
2019-02-07T10:49:39.637Z,98.36
2019-02-07T10:50:54.777Z,97.92
2019-02-07T10:52:26.574Z,97.90
2019-02-07T10:53:50.758Z,98.07
2019-02-07T10:55:18.394Z,97.96
2019-02-07T10:56:38.671Z,97.69
2019-02-07T10:58:01.349Z,97.95
2019-02-07T10:59:25.081Z,98.74
2019-02-07T11:00:52.416Z,98.98
2019-02-07T11:02:13.450Z,98.15
2019-02-07T11:03:35.743Z,98.15
2019-02-07T11:04:57.708Z,98.09
2019-02-07T11:06:22.388Z,98.09
2019-02-07T11:07:57.843Z,98.17
2019-02-07T11:09:33.525Z,98.17
2019-02-07T11:10:44.985Z,97.74
2019-02-07T11:12:19.317Z,97.30
2019-02-07T11:13:50.997Z,97.15
2019-02-07T11:15:11.109Z,96.84
2019-02-07T11:16:40.640Z,96.41
2019-02-07T11:18:01.112Z,97.10
2019-02-07T11:19:24.452Z,97.10
2019-02-07T11:20:44.048Z,96.91
2019-02-07T11:21:57.836Z,96.94
2019-02-07T11:23:23.094Z,96.85
2019-02-07T11:24:51.704Z,96.99
2019-02-07T11:26:25.147Z,96.68
2019-02-07T11:27:45.693Z,96.49
2019-02-07T11:29:05.758Z,96.76
2019-02-07T11:43:37.771Z,93.04
2019-02-07T11:45:02.674Z,92.48
2019-02-07T11:46:15.619Z,92.48
2019-02-07T11:47:43.592Z,92.24
2019-02-07T11:49:07.150Z,93.08
2019-02-07T11:50:28.903Z,92.99
2019-02-07T11:51:44.413Z,93.93
2019-02-07T11:53:05.368Z,93.94
2019-02-07T11:54:34.174Z,93.94
2019-02-07T11:55:55.710Z,92.42
2019-02-07T11:57:19.284Z,100.00
2019-02-07T11:58:53.850Z,66.24
2019-02-07T12:00:09.984Z,100.00
2019-02-07T12:01:31.590Z,90.48
2019-02-07T12:02:51.846Z,90.75
2019-02-07T12:04:02.249Z,91.22
2019-02-07T12:05:35.633Z,92.86
2019-02-07T12:06:58.949Z,92.86
2019-02-07T12:08:20.566Z,93.34
2019-02-07T12:09:41.838Z,93.41
2019-02-07T12:10:59.556Z,93.41
2019-02-07T12:12:19.567Z,93.37
2019-02-07T12:13:40.183Z,93.37
2019-02-07T12:15:07.254Z,93.71
2019-02-07T12:16:31.642Z,93.74
2019-02-07T12:17:50.030Z,93.07
2019-02-07T12:19:01.550Z,92.77
2019-02-07T12:20:24.669Z,92.25
2019-02-07T12:21:43.743Z,92.25
2019-02-07T12:23:15.579Z,92.22
2019-02-07T12:24:41.991Z,91.97
2019-02-07T12:26:10.225Z,91.60
2019-02-07T12:27:49.937Z,91.61
2019-02-07T12:29:12.262Z,91.61
2019-02-07T12:30:32.730Z,91.11
2019-02-07T12:32:06.881Z,90.83
2019-02-07T12:33:31.667Z,90.83
2019-02-07T12:34:59.311Z,89.90
2019-02-07T12:36:22.950Z,89.55
2019-02-07T12:37:27.927Z,89.70
2019-02-07T12:38:58.518Z,90.34
2019-02-07T12:40:18.657Z,90.34
2019-02-07T12:41:58.203Z,90.98
2019-02-07T12:43:23.049Z,90.98
2019-02-07T12:44:51.131Z,90.66
2019-02-07T12:46:33.655Z,90.88
2019-02-07T12:48:01.240Z,90.74
2019-02-07T12:49:29.617Z,88.81
2019-02-07T12:50:51.266Z,89.81
2019-02-07T12:52:15.773Z,90.03
2019-02-07T12:53:29.302Z,89.57
2019-02-07T12:54:53.823Z,89.57
2019-02-07T12:56:14.617Z,89.30
2019-02-07T12:57:29.160Z,88.08
2019-02-07T12:58:49.202Z,87.42
2019-02-07T13:00:13.689Z,87.42
2019-02-07T13:01:38.244Z,87.67
2019-02-07T13:03:10.121Z,87.65
2019-02-07T13:04:33.146Z,86.97
2019-02-07T13:06:06.387Z,86.97
2019-02-07T13:07:42.386Z,86.83
2019-02-07T13:09:02.495Z,86.43
2019-02-07T13:10:24.787Z,86.51
2019-02-07T13:11:48.027Z,86.51
2019-02-07T13:12:59.714Z,86.03
2019-02-07T13:14:29.522Z,85.86
2019-02-07T13:15:55.023Z,86.60
2019-02-07T13:17:31.744Z,86.28
2019-02-07T13:19:05.255Z,86.28
2019-02-07T13:20:38.604Z,86.57
2019-02-07T13:22:06.229Z,86.57
2019-02-07T13:23:40.529Z,87.43
2019-02-07T13:25:11.197Z,87.10
2019-02-07T13:26:31.331Z,87.10
2019-02-07T13:27:44.703Z,87.01
2019-02-07T13:29:06.754Z,86.64
2019-02-07T13:30:28.894Z,86.64
2019-02-07T13:31:52.214Z,84.64
2019-02-07T13:33:32.205Z,83.65
2019-02-07T13:35:01.315Z,83.08
2019-02-07T13:36:21.270Z,83.08
2019-02-07T13:37:54.059Z,81.99
2019-02-07T13:39:14.750Z,81.39
2019-02-07T13:40:36.347Z,80.17
2019-02-07T13:41:58.786Z,80.02
2019-02-07T13:43:20.373Z,80.02
2019-02-07T13:44:51.108Z,80.71
2019-02-07T13:46:06.402Z,79.95
2019-02-07T13:47:37.544Z,80.01
2019-02-07T13:49:12.769Z,78.82
2019-02-07T13:50:25.812Z,79.64
2019-02-07T13:51:38.473Z,79.22
2019-02-07T13:53:00.601Z,80.11
2019-02-07T13:54:22.162Z,80.11
2019-02-07T13:55:43.358Z,79.93
2019-02-07T13:57:14.066Z,79.78
2019-02-07T13:58:38.974Z,79.78
2019-02-07T14:00:00.511Z,79.57
2019-02-07T14:01:20.637Z,79.52
2019-02-07T14:02:58.765Z,80.10
2019-02-07T14:04:19.258Z,80.10
2019-02-07T14:05:38.671Z,79.76
2019-02-07T14:07:00.387Z,79.44
2019-02-07T14:08:38.135Z,79.44
2019-02-07T14:10:02.544Z,80.08
2019-02-07T14:11:24.167Z,79.98
2019-02-07T14:12:45.732Z,79.78
2019-02-07T14:14:06.300Z,78.98
2019-02-07T14:15:27.597Z,79.25
2019-02-07T14:16:47.845Z,78.36
2019-02-07T14:18:07.998Z,78.36
2019-02-07T14:19:27.989Z,78.32
2019-02-07T14:20:54.606Z,78.88
2019-02-07T14:22:19.456Z,78.22
2019-02-07T14:23:41.113Z,78.18
2019-02-07T14:25:01.260Z,78.59
2019-02-07T14:26:23.334Z,78.58
2019-02-07T14:27:47.452Z,78.58
2019-02-07T14:29:15.255Z,78.03
2019-02-07T14:30:45.809Z,77.49
2019-02-07T14:32:11.862Z,79.06
2019-02-07T14:33:39.367Z,78.58
2019-02-07T14:35:13.085Z,78.93
2019-02-07T14:36:52.888Z,78.89
2019-02-07T14:38:13.231Z,79.87
2019-02-07T14:39:34.783Z,78.72
2019-02-07T14:40:54.798Z,78.41
2019-02-07T14:42:19.394Z,78.71
2019-02-07T14:43:41.286Z,78.11
2019-02-07T14:45:08.496Z,78.14
2019-02-07T14:46:30.479Z,77.75
2019-02-07T14:47:33.383Z,77.91
2019-02-07T14:48:36.202Z,77.44
2019-02-07T14:49:43.878Z,77.56
2019-02-07T14:50:46.706Z,77.48
2019-02-07T14:51:49.573Z,77.48
2019-02-07T14:52:55.431Z,77.39
2019-02-07T14:54:00.657Z,77.86
2019-02-07T14:55:08.175Z,77.86
2019-02-07T14:56:11.647Z,77.49
2019-02-07T14:57:14.713Z,78.25
2019-02-07T14:58:24.716Z,79.08
2019-02-07T14:59:35.477Z,78.64
2019-02-07T15:00:37.316Z,78.40
2019-02-07T15:01:42.230Z,78.79
2019-02-07T15:02:48.045Z,79.12
2019-02-07T15:03:55.691Z,79.55
2019-02-07T15:05:04.387Z,79.55
2019-02-07T15:06:07.682Z,79.33
2019-02-07T15:07:13.270Z,79.33
2019-02-07T15:08:16.138Z,79.69
2019-02-07T15:09:33.020Z,79.77
2019-02-07T15:10:33.456Z,79.34
2019-02-07T15:11:40.194Z,78.96
2019-02-07T15:12:47.244Z,79.77
2019-02-07T15:13:48.529Z,79.77
2019-02-07T15:15:13.658Z,79.33
2019-02-07T15:16:16.480Z,79.33
2019-02-07T15:17:19.410Z,78.57
2019-02-07T15:18:22.173Z,77.71
2019-02-07T15:19:25.357Z,77.33
2019-02-07T15:20:29.300Z,77.13
2019-02-07T15:21:32.823Z,78.19
2019-02-07T15:22:35.756Z,77.79
2019-02-07T15:23:38.535Z,77.74
2019-02-07T15:24:41.417Z,77.58
2019-02-07T15:25:44.220Z,77.58
2019-02-07T15:26:50.762Z,78.20
2019-02-07T15:27:57.067Z,78.20
2019-02-07T15:29:02.025Z,78.54
2019-02-07T15:30:07.831Z,79.03
2019-02-07T15:31:10.541Z,79.20
2019-02-07T15:32:13.303Z,79.67
2019-02-07T15:33:17.115Z,80.49
2019-02-07T15:34:20.437Z,80.10
2019-02-07T15:35:27.458Z,80.18
2019-02-07T15:36:33.185Z,80.84
2019-02-07T15:37:36.089Z,80.34
2019-02-07T15:38:38.767Z,80.41
2019-02-07T15:39:41.734Z,80.41
2019-02-07T15:40:44.970Z,81.12
2019-02-07T15:41:47.915Z,81.16
2019-02-07T15:42:50.591Z,81.57
2019-02-07T15:43:53.486Z,81.23
2019-02-07T15:44:56.453Z,81.23
2019-02-07T15:45:59.966Z,80.93
2019-02-07T15:47:05.689Z,81.19
2019-02-07T15:48:08.546Z,81.19
2019-02-07T15:49:11.800Z,81.62
2019-02-07T15:50:14.846Z,81.94
2019-02-07T15:51:17.844Z,82.27
2019-02-07T15:52:26.567Z,82.50
2019-02-07T15:53:34.418Z,81.90
2019-02-07T15:54:42.689Z,82.02
2019-02-07T15:55:45.577Z,82.07
2019-02-07T15:56:48.617Z,82.10
2019-02-07T15:57:51.509Z,81.79
2019-02-07T15:59:17.243Z,81.79
2019-02-07T16:00:39.750Z,82.28
2019-02-07T16:02:01.303Z,82.28
2019-02-07T16:03:08.363Z,82.62
2019-02-07T16:04:20.373Z,82.88
2019-02-07T16:05:26.618Z,82.66
2019-02-07T16:06:31.427Z,82.66
2019-02-07T16:07:34.947Z,83.00
2019-02-07T16:08:38.210Z,83.02
2019-02-07T16:09:43.508Z,83.18
2019-02-07T16:10:49.697Z,82.99
2019-02-07T16:11:56.644Z,82.74
2019-02-07T16:13:00.253Z,82.76
2019-02-07T16:14:04.104Z,82.76
2019-02-07T16:15:06.864Z,82.89
2019-02-07T16:16:10.204Z,83.03
2019-02-07T16:17:15.821Z,82.74
2019-02-07T16:18:18.586Z,82.58
2019-02-07T16:19:21.842Z,82.71
2019-02-07T16:20:25.050Z,82.55
2019-02-07T16:21:27.967Z,82.55
2019-02-07T16:22:38.742Z,82.31
2019-02-07T16:23:44.003Z,82.45
2019-02-07T16:24:47.237Z,82.72
2019-02-07T16:25:51.995Z,81.98
2019-02-07T16:26:57.905Z,81.96
2019-02-07T16:28:04.432Z,81.72
2019-02-07T16:29:07.348Z,81.72
2019-02-07T16:30:10.522Z,82.15
2019-02-07T16:31:13.349Z,81.08
2019-02-07T16:32:18.535Z,81.48
2019-02-07T16:33:21.294Z,81.74
2019-02-07T16:34:24.505Z,81.53
2019-02-07T16:35:29.828Z,81.05
2019-02-07T16:36:36.352Z,81.00
2019-02-07T16:37:39.215Z,80.82
2019-02-07T16:38:42.123Z,80.84
2019-02-07T16:39:47.681Z,81.11
2019-02-07T16:40:51.243Z,81.38
2019-02-07T16:42:05.624Z,81.00
2019-02-07T16:42:59.070Z,81.00
2019-02-07T16:44:03.417Z,80.73
2019-02-07T16:45:09.001Z,80.43
2019-02-07T16:46:13.504Z,80.53
2019-02-07T16:47:16.584Z,80.28
2019-02-07T16:48:22.167Z,80.55
2019-02-07T16:49:25.611Z,80.65
2019-02-07T16:50:34.763Z,80.11
2019-02-07T16:51:37.657Z,80.11
2019-02-07T16:52:44.004Z,79.79
2019-02-07T16:53:47.155Z,80.05
2019-02-07T16:54:52.629Z,80.12
2019-02-07T16:55:55.445Z,79.77